Time;durP1;ratioP1;P1;durP2;ratioP2;P2;SDS_P1;SDS_P2;PMS_P1;PMS_P2;Temp;Humidity;BMP_temperature;BMP_pressure;BME280_temperature;BME280_humidity;BME280_pressure;Samples;Min_cycle;Max_cycle;Signal;HPM_P1;HPM_P2
2023/02/25 00:01:11;;;;;;;19.48;13.82;;;;;;;7.54;100.00;94128.47;5010310;28;20115;-76
2023/02/25 00:03:37;;;;;;;17.33;12.30;;;;;;;7.61;100.00;94131.94;5026591;28;20034;-77
2023/02/25 00:06:04;;;;;;;22.70;13.38;;;;;;;7.63;100.00;94108.59;5020064;28;20030;-76
2023/02/25 00:08:30;;;;;;;22.92;12.57;;;;;;;7.95;100.00;94132.31;5020268;28;20421;-77
2023/02/25 00:11:00;;;;;;;23.23;12.73;;;;;;;7.83;100.00;94125.16;5030921;28;20405;-79
2023/02/25 00:13:26;;;;;;;21.45;13.00;;;;;;;7.93;100.00;94131.66;5014110;28;20056;-78
2023/02/25 00:15:52;;;;;;;16.92;12.32;;;;;;;7.81;100.00;94134.84;5037720;28;20086;-78
2023/02/25 00:18:17;;;;;;;18.77;12.55;;;;;;;7.93;100.00;94133.44;5019572;28;20022;-78
2023/02/25 00:20:43;;;;;;;15.02;13.30;;;;;;;7.87;100.00;94134.13;5020197;28;20090;-78
2023/02/25 00:23:08;;;;;;;20.95;13.55;;;;;;;7.76;100.00;94135.38;5023851;28;20018;-78
2023/02/25 00:25:34;;;;;;;19.20;13.50;;;;;;;7.23;100.00;94141.38;5023483;28;20518;-78
2023/02/25 00:27:59;;;;;;;23.45;16.63;;;;;;;6.43;100.00;94136.63;5025566;28;20029;-77
2023/02/25 00:30:25;;;;;;;28.15;17.67;;;;;;;5.75;100.00;94148.13;5017099;28;20640;-79
2023/02/25 00:32:50;;;;;;;33.53;18.25;;;;;;;5.23;100.00;94146.84;5022636;28;20030;-76
2023/02/25 00:35:16;;;;;;;31.92;19.52;;;;;;;5.13;100.00;94148.72;5024767;28;20017;-78
2023/02/25 00:37:41;;;;;;;30.92;19.30;;;;;;;4.97;100.00;94148.69;5033233;28;20033;-76
2023/02/25 00:40:14;;;;;;;31.77;19.17;;;;;;;4.93;100.00;94143.06;5037021;28;20033;-78
2023/02/25 00:42:40;;;;;;;30.02;19.48;;;;;;;4.89;100.00;94139.22;5022180;28;20124;-75
2023/02/25 00:45:07;;;;;;;27.33;20.27;;;;;;;4.92;100.00;94144.03;5024087;28;20439;-76
2023/02/25 00:47:32;;;;;;;28.33;20.17;;;;;;;4.78;100.00;94127.47;5035910;28;20557;-78
2023/02/25 00:49:58;;;;;;;31.77;19.33;;;;;;;4.74;100.00;94136.47;5019025;28;20037;-76
2023/02/25 00:52:23;;;;;;;29.00;20.10;;;;;;;4.67;100.00;94134.66;5022933;28;20108;-76
2023/02/25 00:54:48;;;;;;;32.00;20.73;;;;;;;4.58;100.00;94141.53;5012702;28;20061;-76
2023/02/25 00:57:14;;;;;;;28.15;19.67;;;;;;;4.58;100.00;94133.84;5009958;28;20385;-76
2023/02/25 00:59:39;;;;;;;30.08;20.40;;;;;;;4.37;100.00;94130.84;5034004;28;20108;-77
2023/02/25 01:02:05;;;;;;;31.92;20.52;;;;;;;4.44;100.00;94124.16;5024739;28;20029;-77
2023/02/25 01:04:30;;;;;;;35.78;21.17;;;;;;;4.39;100.00;94121.28;5005854;28;20057;-76
2023/02/25 01:06:56;;;;;;;29.42;20.70;;;;;;;4.30;100.00;94111.94;5021989;28;20549;-76
2023/02/25 01:09:21;;;;;;;31.33;20.15;;;;;;;4.40;100.00;94107.47;5023383;28;20051;-76
2023/02/25 01:11:47;;;;;;;29.77;20.13;;;;;;;4.49;100.00;94109.13;5022614;28;20475;-76
2023/02/25 01:14:17;;;;;;;30.27;19.10;;;;;;;4.38;100.00;94104.28;5022925;28;20116;-76
2023/02/25 01:16:43;;;;;;;;;;;;;;;4.34;100.00;94109.84;5022842;28;20454;-77
2023/02/25 01:19:12;;;;;;;25.98;18.90;;;;;;;3.62;100.00;94106.78;5018031;28;20396;-77
2023/02/25 01:21:39;;;;;;;;;;;;;;;3.72;100.00;94099.00;5005475;28;20195;-76
2023/02/25 01:24:08;;;;;;;30.58;18.83;;;;;;;3.73;100.00;94101.38;5023522;28;19917;-77
2023/02/25 01:26:35;;;;;;;;;;;;;;;3.72;100.00;94088.75;5009361;28;20486;-77
2023/02/25 01:29:01;;;;;;;37.63;21.00;;;;;;;3.63;100.00;94090.44;5030043;28;19917;-76
2023/02/25 01:31:30;;;;;;;33.13;20.52;;;;;;;3.66;100.00;94091.91;5024051;28;20040;-77
2023/02/25 01:33:59;;;;;;;32.90;21.50;;;;;;;3.64;100.00;94093.81;5025010;28;20505;-76
2023/02/25 01:36:25;;;;;;;;;;;;;;;3.71;100.00;94089.69;5029282;28;20103;-76
2023/02/25 01:38:50;;;;;;;31.90;21.92;;;;;;;3.65;100.00;94080.06;5020952;28;19913;-77
2023/02/25 01:41:16;;;;;;;31.08;20.33;;;;;;;3.78;100.00;94089.91;5013519;28;20914;-77
2023/02/25 01:43:41;;;;;;;35.30;19.67;;;;;;;3.68;100.00;94083.13;5021917;28;20569;-77
2023/02/25 01:46:07;;;;;;;29.70;18.15;;;;;;;3.71;100.00;94079.47;5022490;28;20033;-76
2023/02/25 01:48:36;;;;;;;25.10;18.40;;;;;;;3.65;100.00;94080.06;5024187;28;20487;-76
2023/02/25 01:51:06;;;;;;;26.20;16.77;;;;;;;3.61;100.00;94073.63;5021875;28;20021;-76
2023/02/25 01:53:42;;;;;;;29.42;17.92;;;;;;;3.54;100.00;94081.09;5027809;28;20037;-77
2023/02/25 01:56:10;;;;;;;32.08;17.58;;;;;;;3.53;100.00;94076.94;5012543;28;20059;-77
2023/02/25 01:58:37;;;;;;;32.30;18.38;;;;;;;3.60;100.00;94077.13;5041404;28;20033;-77
2023/02/25 02:01:02;;;;;;;27.15;17.30;;;;;;;3.64;100.00;94086.94;5010761;28;20603;-77
2023/02/25 02:03:31;;;;;;;24.90;16.20;;;;;;;3.63;100.00;94084.50;5041360;28;20017;-75
2023/02/25 02:06:15;;;;;;;28.05;18.10;;;;;;;3.46;100.00;94085.38;5036454;28;20014;-76
2023/02/25 02:08:43;;;;;;;27.98;18.20;;;;;;;3.43;100.00;94068.56;5020702;28;20021;-76
2023/02/25 02:11:09;;;;;;;26.80;18.02;;;;;;;3.72;100.00;94076.72;5026908;28;20079;-76
2023/02/25 02:13:38;;;;;;;31.60;18.02;;;;;;;3.66;100.00;94067.09;5012991;28;20029;-76
2023/02/25 02:16:35;;;;;;;27.63;17.55;;;;;;;3.77;100.00;94067.81;5022884;28;20033;-77
2023/02/25 02:19:27;;;;;;;29.23;17.35;;;;;;;3.57;100.00;94073.13;5043383;28;20056;-77
2023/02/25 02:22:02;;;;;;;28.33;17.45;;;;;;;3.54;100.00;94065.75;5005836;28;20403;-77
2023/02/25 02:24:46;;;;;;;26.88;16.42;;;;;;;3.56;100.00;94066.41;5025801;28;20025;-77
2023/02/25 02:27:31;;;;;;;29.10;17.83;;;;;;;3.40;100.00;94070.63;5031553;28;20044;-77
2023/02/25 02:30:12;;;;;;;19.58;16.02;;;;;;;3.48;100.00;94068.91;5027110;28;21035;-77
2023/02/25 02:32:42;;;;;;;27.48;17.33;;;;;;;3.38;100.00;94062.28;5028619;28;20029;-76
2023/02/25 02:35:22;;;;;;;28.23;18.75;;;;;;;3.18;100.00;94065.00;5019989;28;20079;-76
2023/02/25 02:38:07;;;;;;;29.73;16.88;;;;;;;3.08;100.00;94059.19;5040876;28;20059;-76
2023/02/25 02:40:35;;;;;;;23.02;16.73;;;;;;;3.19;100.00;94056.41;5004694;28;20128;-76
2023/02/25 02:43:14;;;;;;;27.73;18.65;;;;;;;3.29;100.00;94058.88;5034262;28;20029;-76
2023/02/25 02:46:00;;;;;;;33.60;19.15;;;;;;;3.30;100.00;94050.25;5020969;28;20037;-77
2023/02/25 02:48:52;;;;;;;27.85;18.02;;;;;;;3.37;100.00;94050.47;5035109;28;20065;-76
2023/02/25 02:51:35;;;;;;;33.00;16.95;;;;;;;3.43;100.00;94040.44;5024650;28;20057;-76
2023/02/25 02:54:04;;;;;;;27.30;16.17;;;;;;;3.41;100.00;94032.06;5024589;28;20079;-76
2023/02/25 02:56:30;;;;;;;;;;;;;;;3.37;100.00;94040.22;5024993;28;20039;-76
2023/02/25 02:59:04;;;;;;;23.05;16.15;;;;;;;3.20;100.00;94029.06;5020720;28;19921;-76
2023/02/25 03:01:33;;;;;;;24.88;16.83;;;;;;;3.29;100.00;94035.03;5013582;28;20051;-76
2023/02/25 03:04:02;;;;;;;26.20;15.68;;;;;;;3.32;100.00;94033.00;5023512;28;20469;-76
2023/02/25 03:06:32;;;;;;;24.00;17.05;;;;;;;3.26;100.00;94030.22;5030577;28;20028;-76
2023/02/25 03:09:06;;;;;;;24.73;15.82;;;;;;;3.02;100.00;94025.72;5021126;28;20045;-76
2023/02/25 03:11:32;;;;;;;27.27;16.02;;;;;;;2.97;100.00;94025.38;5033512;28;20029;-76
2023/02/25 03:13:58;;;;;;;27.83;16.27;;;;;;;2.84;100.00;94020.63;5019574;28;20079;-76
2023/02/25 03:16:46;;;;;;;30.98;17.20;;;;;;;2.97;100.00;94022.81;5010755;28;20580;-76
2023/02/25 03:19:22;;;;;;;28.50;17.27;;;;;;;3.11;100.00;94014.63;5024065;28;20029;-76
2023/02/25 03:21:53;;;;;;;27.08;16.00;;;;;;;3.21;100.00;94023.00;5021045;28;20025;-76
2023/02/25 03:24:22;;;;;;;26.90;16.23;;;;;;;3.15;100.00;94015.91;5003851;28;20387;-76
2023/02/25 03:26:51;;;;;;;27.10;17.93;;;;;;;3.09;100.00;94013.94;5028064;28;20036;-78
2023/02/25 03:29:19;;;;;;;26.13;15.75;;;;;;;3.13;100.00;94021.19;5039597;28;20279;-75
2023/02/25 03:31:50;;;;;;;24.02;16.70;;;;;;;3.26;100.00;94018.25;5019205;28;20518;-78
2023/02/25 03:34:19;;;;;;;23.48;16.77;;;;;;;3.24;100.00;94019.34;5013868;28;20428;-75
2023/02/25 03:36:52;;;;;;;29.30;16.85;;;;;;;3.08;100.00;94014.94;5019474;28;20033;-76
2023/02/25 03:39:21;;;;;;;24.50;17.15;;;;;;;2.93;100.00;94003.59;5012300;28;20553;-76
2023/02/25 03:41:50;;;;;;;25.92;16.73;;;;;;;2.99;100.00;94016.59;5038321;28;20029;-76
2023/02/25 03:44:20;;;;;;;27.73;17.73;;;;;;;3.47;100.00;94005.88;5002522;28;20125;-76
2023/02/25 03:46:46;;;;;;;28.13;17.27;;;;;;;3.80;100.00;94008.59;5020058;28;20124;-76
2023/02/25 03:49:15;;;;;;;27.83;16.92;;;;;;;3.12;100.00;94000.88;5021181;28;20076;-75
2023/02/25 03:51:41;;;;;;;28.10;16.75;;;;;;;3.07;100.00;94006.44;5030459;28;20091;-75
2023/02/25 03:54:07;;;;;;;29.35;15.90;;;;;;;3.37;100.00;94006.97;5018931;28;20491;-75
2023/02/25 03:56:41;;;;;;;25.67;16.48;;;;;;;3.25;100.00;94011.50;5019057;28;20021;-75
2023/02/25 03:59:06;;;;;;;32.50;16.75;;;;;;;3.18;100.00;93995.16;5019182;28;20400;-76
2023/02/25 04:01:32;;;;;;;29.05;17.58;;;;;;;3.13;100.00;93989.69;5018794;28;20068;-76
2023/02/25 04:03:57;;;;;;;27.30;16.77;;;;;;;3.57;100.00;93987.88;5019909;28;20037;-78
2023/02/25 04:06:23;;;;;;;24.17;15.43;;;;;;;3.79;100.00;93986.53;5020090;28;20080;-78
2023/02/25 04:08:49;;;;;;;23.77;15.63;;;;;;;4.20;100.00;93985.72;5010074;28;20029;-75
2023/02/25 04:11:15;;;;;;;22.00;15.20;;;;;;;4.74;100.00;93987.72;5019275;28;20026;-76
2023/02/25 04:13:41;;;;;;;22.15;15.48;;;;;;;4.94;100.00;93977.97;5023533;28;20025;-78
2023/02/25 04:16:07;;;;;;;21.45;14.77;;;;;;;5.56;100.00;93966.13;5025923;28;20444;-75
2023/02/25 04:18:33;;;;;;;27.45;13.85;;;;;;;5.72;100.00;93970.41;5019250;28;20120;-78
2023/02/25 04:20:58;;;;;;;19.08;13.48;;;;;;;5.64;100.00;93965.31;5019752;28;20117;-76
2023/02/25 04:23:24;;;;;;;25.38;12.95;;;;;;;5.67;100.00;93954.72;5016983;28;20033;-75
2023/02/25 04:25:49;;;;;;;22.98;13.38;;;;;;;5.55;100.00;93948.34;5019675;28;20045;-78
2023/02/25 04:28:14;;;;;;;20.10;12.52;;;;;;;5.79;100.00;93956.75;5032703;28;20038;-78
2023/02/25 04:30:40;;;;;;;19.02;12.27;;;;;;;5.80;100.00;93949.84;5007387;28;20029;-78
2023/02/25 04:33:05;;;;;;;26.67;13.55;;;;;;;5.91;100.00;93956.44;5019056;28;20471;-77
2023/02/25 04:35:31;;;;;;;25.88;13.68;;;;;;;5.86;100.00;93953.53;5032670;28;20071;-77
2023/02/25 04:37:56;;;;;;;24.35;13.93;;;;;;;5.87;100.00;93955.16;5014144;28;20136;-77
2023/02/25 04:40:23;;;;;;;22.48;13.40;;;;;;;6.13;100.00;93956.47;5018401;28;20025;-79
2023/02/25 04:42:49;;;;;;;25.83;14.18;;;;;;;6.08;100.00;93956.16;5019769;28;20087;-78
2023/02/25 04:45:14;;;;;;;30.60;14.52;;;;;;;6.09;100.00;93944.94;5016172;28;20029;-77
2023/02/25 04:47:40;;;;;;;21.80;13.57;;;;;;;6.34;100.00;93948.16;5020001;28;20136;-77
2023/02/25 04:50:07;;;;;;;25.10;12.52;;;;;;;6.45;100.00;93945.22;5018841;28;20116;-78
2023/02/25 04:52:32;;;;;;;25.83;12.95;;;;;;;6.49;100.00;93933.59;5006367;28;20030;-79
2023/02/25 04:54:58;;;;;;;24.02;11.68;;;;;;;6.66;100.00;93929.13;5019793;28;20033;-78
2023/02/25 04:57:23;;;;;;;22.75;13.32;;;;;;;6.07;100.00;93935.78;5022217;28;20040;-79
2023/02/25 04:59:49;;;;;;;19.40;13.48;;;;;;;5.28;100.00;93941.81;5029617;28;20051;-78
2023/02/25 05:02:14;;;;;;;25.00;14.30;;;;;;;4.68;100.00;93949.09;5023791;28;20032;-78
2023/02/25 05:04:40;;;;;;;26.80;14.38;;;;;;;4.68;100.00;93947.34;5021002;28;20021;-78
2023/02/25 05:07:06;;;;;;;22.50;14.60;;;;;;;4.78;100.00;93947.97;5020839;28;20036;-78
2023/02/25 05:09:32;;;;;;;53.72;31.08;;;;;;;4.75;100.00;93952.63;5024461;28;20021;-78
2023/02/25 05:11:58;;;;;;;41.50;23.27;;;;;;;5.41;100.00;93942.13;5018210;28;20029;-78
2023/02/25 05:14:24;;;;;;;39.25;22.40;;;;;;;4.99;100.00;93936.41;5025361;28;20108;-78
2023/02/25 05:16:49;;;;;;;24.88;14.15;;;;;;;4.81;100.00;93944.28;5016784;28;20120;-78
2023/02/25 05:19:23;;;;;;;22.92;14.20;;;;;;;4.76;100.00;93936.28;5026631;28;20426;-78
2023/02/25 05:21:50;;;;;;;25.50;14.95;;;;;;;4.76;100.00;93944.78;5023012;28;20025;-79
2023/02/25 05:24:16;;;;;;;23.95;14.57;;;;;;;4.68;100.00;93943.97;5036567;28;20025;-79
2023/02/25 05:26:41;;;;;;;24.50;14.35;;;;;;;4.79;100.00;93952.13;5023320;28;20056;-78
2023/02/25 05:29:07;;;;;;;26.58;13.82;;;;;;;4.90;100.00;93955.34;5022464;28;20501;-78
2023/02/25 05:31:33;;;;;;;26.25;13.65;;;;;;;4.96;100.00;93952.94;5022880;28;20034;-78
2023/02/25 05:33:58;;;;;;;29.52;15.90;;;;;;;5.02;100.00;93952.28;5030969;28;20116;-78
2023/02/25 05:36:24;;;;;;;45.60;23.63;;;;;;;5.18;100.00;93949.69;5030355;28;20917;-78
2023/02/25 05:38:52;;;;;;;39.22;21.52;;;;;;;5.31;100.00;93964.59;5028559;28;20024;-78
2023/02/25 05:41:17;;;;;;;29.10;15.93;;;;;;;5.29;100.00;93958.84;5037450;28;20080;-78
2023/02/25 05:43:44;;;;;;;23.33;15.90;;;;;;;5.43;100.00;93968.41;5022800;28;20064;-79
2023/02/25 05:46:12;;;;;;;24.83;14.95;;;;;;;5.56;100.00;93983.31;5008411;28;20029;-78
2023/02/25 05:48:38;;;;;;;24.40;14.73;;;;;;;5.80;100.00;93986.63;5033167;28;20135;-77
2023/02/25 05:51:06;;;;;;;20.50;14.63;;;;;;;5.59;100.00;93975.25;5021622;28;20159;-77
2023/02/25 05:53:32;;;;;;;25.17;14.95;;;;;;;5.78;100.00;93996.25;5022427;28;20025;-77
2023/02/25 05:55:58;;;;;;;22.35;14.45;;;;;;;6.01;100.00;93998.91;5021570;28;20564;-77
2023/02/25 05:58:24;;;;;;;21.27;14.10;;;;;;;6.90;100.00;94004.34;5029786;28;20082;-77
2023/02/25 06:00:50;;;;;;;24.33;14.32;;;;;;;7.17;100.00;94008.19;5030705;28;20048;-78
2023/02/25 06:03:15;;;;;;;31.10;12.43;;;;;;;6.74;100.00;93995.97;5036545;28;20029;-77
2023/02/25 06:05:42;;;;;;;20.58;11.23;;;;;;;7.74;100.00;94007.66;5037717;28;20033;-77
2023/02/25 06:08:09;;;;;;;21.73;12.18;;;;;;;7.83;100.00;94009.97;5021063;28;20583;-77
2023/02/25 06:10:37;;;;;;;22.45;12.02;;;;;;;7.13;100.00;93995.81;5037267;28;20527;-77
2023/02/25 06:13:10;;;;;;;23.48;13.93;;;;;;;6.90;100.00;94009.50;5020505;28;20026;-77
2023/02/25 06:15:37;;;;;;;21.52;13.23;;;;;;;6.68;100.00;94014.63;5024047;28;20025;-78
2023/02/25 06:18:03;;;;;;;23.75;14.73;;;;;;;6.76;100.00;94012.03;5022411;28;20033;-79
2023/02/25 06:20:53;;;;;;;22.13;13.50;;;;;;;6.73;100.00;94008.03;5025337;28;20807;-81
2023/02/25 06:23:19;;;;;;;21.00;13.70;;;;;;;6.57;100.00;94009.91;5045445;28;20033;-79
2023/02/25 06:25:44;;;;;;;20.38;13.55;;;;;;;5.94;100.00;93987.69;5045567;28;20078;-79
2023/02/25 06:28:10;;;;;;;28.92;13.10;;;;;;;6.04;100.00;93992.63;5029078;28;20407;-79
2023/02/25 06:30:35;;;;;;;22.92;10.85;;;;;;;6.23;100.00;94005.09;5030706;28;20878;-79
2023/02/25 06:33:01;;;;;;;19.05;11.50;;;;;;;6.29;100.00;94010.34;5017131;28;20033;-79
2023/02/25 06:35:26;;;;;;;26.23;12.60;;;;;;;6.30;100.00;94003.44;5038905;28;20032;-78
2023/02/25 06:37:55;;;;;;;26.83;12.38;;;;;;;6.36;100.00;94000.19;5032133;28;20078;-77
2023/02/25 06:40:20;;;;;;;27.88;12.23;;;;;;;6.61;100.00;94011.97;5019580;28;20039;-78
2023/02/25 06:42:45;;;;;;;19.25;11.88;;;;;;;6.80;100.00;94001.25;5039550;28;20045;-78
2023/02/25 06:45:11;;;;;;;19.25;11.00;;;;;;;6.94;100.00;93980.84;5034061;28;20033;-78
2023/02/25 06:47:37;;;;;;;15.88;10.95;;;;;;;7.24;100.00;93995.41;5034535;28;20075;-78
2023/02/25 06:50:02;;;;;;;25.02;11.77;;;;;;;7.47;100.00;94003.91;5027404;28;20021;-78
2023/02/25 06:52:28;;;;;;;20.00;10.70;;;;;;;7.52;100.00;93991.28;5034748;28;20025;-78
2023/02/25 06:54:53;;;;;;;21.05;11.70;;;;;;;7.19;100.00;93993.34;5026667;28;20116;-78
2023/02/25 06:57:19;;;;;;;24.90;11.52;;;;;;;7.08;100.00;93992.97;5021401;28;20033;-77
2023/02/25 06:59:44;;;;;;;21.65;11.98;;;;;;;7.32;100.00;93993.56;5011308;28;20052;-77
2023/02/25 07:02:13;;;;;;;25.65;12.70;;;;;;;7.20;100.00;93986.44;5027110;28;20029;-78
2023/02/25 07:04:39;;;;;;;21.17;13.53;;;;;;;7.13;100.00;93988.91;5020155;28;20037;-78
2023/02/25 07:07:04;;;;;;;27.60;14.32;;;;;;;7.25;100.00;93984.16;5020802;28;20692;-78
2023/02/25 07:09:30;;;;;;;21.73;14.65;;;;;;;7.66;100.00;93980.22;5020412;28;20502;-78
2023/02/25 07:11:55;;;;;;;29.80;16.73;;;;;;;7.77;100.00;93984.13;5020468;28;20120;-77
2023/02/25 07:14:21;;;;;;;92.78;57.60;;;;;;;8.09;100.00;93952.78;5020031;28;20029;-77
2023/02/25 07:16:46;;;;;;;38.75;23.70;;;;;;;8.70;100.00;93948.91;5021668;28;21082;-78
2023/02/25 07:19:13;;;;;;;27.45;16.75;;;;;;;13.19;86.55;93946.56;5021720;28;20565;-77
2023/02/25 07:21:39;;;;;;;23.85;12.60;;;;;;;12.06;90.05;93931.75;5022762;28;20163;-77
2023/02/25 07:24:05;;;;;;;27.45;13.63;;;;;;;14.33;72.42;93904.41;5019221;28;20518;-80
2023/02/25 07:26:30;;;;;;;24.20;12.43;;;;;;;15.73;62.92;93905.53;5016625;28;20553;-79
2023/02/25 07:28:57;;;;;;;16.42;11.43;;;;;;;15.34;60.01;93914.00;5019469;28;20030;-80
2023/02/25 07:31:23;;;;;;;18.02;11.65;;;;;;;14.31;60.82;93877.75;5031884;28;20120;-80
2023/02/25 07:33:49;;;;;;;13.60;10.98;;;;;;;11.29;84.24;93859.09;5027162;28;20093;-79
2023/02/25 07:36:15;;;;;;;19.27;11.40;;;;;;;13.33;76.23;93869.22;5029235;28;20580;-78
2023/02/25 07:38:41;;;;;;;17.42;10.93;;;;;;;13.83;70.98;93875.13;5003332;28;20030;-80
2023/02/25 07:41:09;;;;;;;18.73;10.98;;;;;;;19.08;53.31;93884.34;5018185;28;20422;-79
2023/02/25 07:43:35;;;;;;;21.20;10.82;;;;;;;21.69;44.48;93873.38;5018751;28;20025;-79
2023/02/25 07:46:00;;;;;;;19.25;10.23;;;;;;;22.16;41.76;93872.22;5038531;28;20044;-80
2023/02/25 07:48:26;;;;;;;18.70;10.23;;;;;;;17.59;47.15;93876.03;5035496;28;20040;-81
2023/02/25 07:50:51;;;;;;;18.05;10.23;;;;;;;15.07;57.67;93866.66;5036624;28;20052;-82
2023/02/25 07:53:17;;;;;;;18.27;10.57;;;;;;;14.56;57.67;93875.84;5034419;28;20451;-79
2023/02/25 07:55:43;;;;;;;19.65;9.95;;;;;;;15.25;55.61;93871.81;5031045;28;20025;-78
2023/02/25 07:58:10;;;;;;;18.58;10.52;;;;;;;13.13;59.55;93845.22;5027239;28;20040;-78
2023/02/25 08:00:37;;;;;;;16.23;10.48;;;;;;;13.38;61.52;93860.78;5015669;28;20057;-80
2023/02/25 08:03:03;;;;;;;27.60;17.48;;;;;;;12.33;67.17;93864.91;5023513;28;20049;-78
2023/02/25 08:05:32;;;;;;;19.60;11.50;;;;;;;12.09;69.32;93861.25;5025223;28;20167;-78
2023/02/25 08:07:57;;;;;;;22.33;10.75;;;;;;;12.23;68.35;93853.41;5023611;28;20029;-77
2023/02/25 08:10:23;;;;;;;17.92;10.18;;;;;;;11.98;68.95;93859.28;5025519;28;20043;-78
2023/02/25 08:12:48;;;;;;;19.67;10.65;;;;;;;11.78;67.92;93858.59;5023826;28;20525;-78
2023/02/25 08:15:13;;;;;;;19.08;10.88;;;;;;;11.87;68.76;93856.56;5037549;28;20029;-79
2023/02/25 08:17:39;;;;;;;18.30;10.48;;;;;;;11.72;70.68;93850.84;5031820;28;20036;-78
2023/02/25 08:20:05;;;;;;;24.33;11.63;;;;;;;12.05;67.22;93838.50;5028106;28;20815;-78
2023/02/25 08:22:30;;;;;;;17.48;10.10;;;;;;;12.88;64.50;93839.97;5028859;28;20049;-78
2023/02/25 08:24:56;;;;;;;18.10;10.48;;;;;;;12.39;64.63;93845.94;5029849;28;20047;-79
2023/02/25 08:27:21;;;;;;;15.90;10.70;;;;;;;13.72;60.16;93831.59;5029163;28;20029;-78
2023/02/25 08:29:47;;;;;;;23.95;11.00;;;;;;;13.51;62.00;93842.44;5033441;28;20089;-79
2023/02/25 08:32:12;;;;;;;18.17;11.90;;;;;;;12.80;65.17;93829.84;5038503;28;20041;-79
2023/02/25 08:34:38;;;;;;;14.68;11.07;;;;;;;15.39;55.07;93834.03;5036963;28;20045;-77
2023/02/25 08:37:03;;;;;;;14.80;10.18;;;;;;;16.04;53.70;93818.97;5016784;28;20038;-79
2023/02/25 08:39:29;;;;;;;16.27;11.35;;;;;;;16.58;53.03;93809.00;5034046;28;20028;-79
2023/02/25 08:41:55;;;;;;;16.75;11.13;;;;;;;16.74;51.58;93818.69;5039275;28;20025;-79
2023/02/25 08:44:21;;;;;;;20.95;10.98;;;;;;;15.51;54.98;93827.00;5025095;28;20093;-78
2023/02/25 08:46:46;;;;;;;17.63;10.85;;;;;;;17.83;50.05;93815.34;5047584;28;20032;-79
2023/02/25 08:49:12;;;;;;;22.80;10.55;;;;;;;14.77;54.92;93828.41;5043544;28;20662;-78
2023/02/25 08:51:39;;;;;;;24.98;10.60;;;;;;;14.87;54.90;93845.31;5040829;28;20047;-78
2023/02/25 08:54:07;;;;;;;23.02;10.27;;;;;;;16.70;52.28;93831.44;5041424;28;20021;-79
2023/02/25 08:56:34;;;;;;;17.30;9.05;;;;;;;17.14;48.73;93815.94;5037883;28;20031;-79
2023/02/25 08:58:59;;;;;;;20.02;8.75;;;;;;;15.10;53.91;93814.84;5038988;28;20501;-79
2023/02/25 09:01:25;;;;;;;13.38;8.48;;;;;;;15.85;52.92;93807.09;5038388;28;20049;-79
2023/02/25 09:03:51;;;;;;;19.45;9.57;;;;;;;13.85;57.70;93815.81;5041621;28;20514;-78
2023/02/25 09:06:18;;;;;;;19.25;9.50;;;;;;;15.18;54.72;93814.53;5046821;28;20033;-79
2023/02/25 09:08:43;;;;;;;18.55;9.25;;;;;;;14.45;56.94;93806.25;5044914;28;20021;-79
2023/02/25 09:11:08;;;;;;;19.17;9.45;;;;;;;14.89;55.53;93806.78;5036027;28;20041;-79
2023/02/25 09:13:34;;;;;;;22.10;10.18;;;;;;;13.72;55.45;93795.16;5034580;28;20033;-79
2023/02/25 09:16:00;;;;;;;16.25;8.55;;;;;;;13.58;57.58;93791.91;5037622;28;20497;-78
2023/02/25 09:18:26;;;;;;;17.20;8.68;;;;;;;13.97;57.64;93797.66;5040779;28;20477;-78
2023/02/25 09:20:51;;;;;;;19.92;9.15;;;;;;;13.85;57.32;93784.59;5038394;28;20072;-78
2023/02/25 09:23:16;;;;;;;18.63;9.20;;;;;;;13.87;58.03;93802.59;5035813;28;20029;-79
2023/02/25 09:25:45;;;;;;;19.70;9.70;;;;;;;13.50;59.32;93783.63;5030586;28;20082;-78
2023/02/25 09:28:11;;;;;;;19.63;8.68;;;;;;;13.48;58.35;93804.66;5046119;28;20025;-79
2023/02/25 09:30:37;;;;;;;19.88;10.68;;;;;;;13.18;60.49;93796.75;5041753;28;20099;-78
2023/02/25 09:33:03;;;;;;;23.55;12.35;;;;;;;13.15;61.49;93792.00;5018029;28;20028;-78
2023/02/25 09:35:30;;;;;;;23.27;11.57;;;;;;;13.04;62.71;93784.84;5022439;28;20102;-78
2023/02/25 09:37:57;;;;;;;21.00;11.25;;;;;;;12.67;63.91;93786.59;5025806;28;20028;-78
2023/02/25 09:40:22;;;;;;;19.88;10.82;;;;;;;12.70;63.89;93795.75;5034733;28;20074;-78
2023/02/25 09:42:58;;;;;;;37.88;20.08;;;;;;;12.86;63.71;93791.81;5014295;28;20037;-78
2023/02/25 09:45:25;;;;;;;22.45;12.15;;;;;;;12.65;64.31;93787.78;5023855;28;20030;-77
2023/02/25 09:48:03;;;;;;;19.77;9.93;;;;;;;12.45;64.76;93792.34;5022669;28;20036;-78
2023/02/25 09:50:38;;;;;;;20.98;12.57;;;;;;;12.45;64.78;93777.56;5023076;28;20271;-77
2023/02/25 09:53:14;;;;;;;27.20;10.88;;;;;;;12.19;65.46;93766.56;5023134;28;20064;-79
2023/02/25 09:55:41;;;;;;;20.75;9.40;;;;;;;12.40;64.17;93750.63;5032736;28;20036;-80
2023/02/25 09:58:34;;;;;;;22.83;10.20;;;;;;;12.41;64.48;93739.25;5034295;28;20036;-78
2023/02/25 10:01:08;;;;;;;21.35;9.55;;;;;;;12.40;63.47;93743.63;5026796;28;20046;-79
2023/02/25 10:03:46;;;;;;;23.85;9.10;;;;;;;12.59;62.89;93765.25;5042600;28;20047;-80
2023/02/25 10:06:36;;;;;;;34.33;10.30;;;;;;;12.67;61.11;93759.81;5045334;28;20094;-80
2023/02/25 10:09:39;;;;;;;20.63;9.07;;;;;;;12.66;61.06;93779.00;5033472;28;20096;-78
2023/02/25 10:12:26;;;;;;;18.75;8.70;;;;;;;12.60;61.24;93767.66;5025612;28;20037;-78
2023/02/25 10:15:12;;;;;;;23.63;8.18;;;;;;;12.62;61.19;93767.44;5026746;28;20029;-79
2023/02/25 10:18:03;;;;;;;23.52;8.90;;;;;;;12.57;61.51;93780.28;5036727;28;20461;-79
2023/02/25 10:20:47;;;;;;;20.75;9.90;;;;;;;12.43;63.17;93776.16;5036796;28;20605;-78
2023/02/25 10:23:43;;;;;;;23.50;11.82;;;;;;;11.85;69.55;93775.53;5037816;28;20487;-77
2023/02/25 10:26:18;;;;;;;27.85;12.88;;;;;;;11.63;72.82;93764.63;5023628;28;20032;-77
2023/02/25 10:28:48;;;;;;;25.80;13.02;;;;;;;11.66;74.05;93764.22;5029036;28;20028;-78
2023/02/25 10:31:14;;;;;;;;;;;;;;;11.55;76.40;93757.91;5028765;28;20986;-77
2023/02/25 10:33:42;;;;;;;24.83;14.52;;;;;;;11.45;77.87;93749.75;5040544;28;19917;-78
2023/02/25 10:36:29;;;;;;;24.60;13.45;;;;;;;11.50;78.45;93741.34;5030013;28;20029;-76
2023/02/25 10:38:55;;;;;;;29.13;14.25;;;;;;;11.48;78.89;93733.00;5028472;28;20572;-77
2023/02/25 10:41:22;;;;;;;25.30;13.27;;;;;;;11.54;78.19;93734.75;5032710;28;20092;-78
2023/02/25 10:43:49;;;;;;;20.30;12.30;;;;;;;11.62;77.98;93739.72;5027016;28;20053;-78
2023/02/25 10:46:50;;;;;;;21.67;12.07;;;;;;;11.66;75.69;93725.31;5024105;28;20067;-77
2023/02/25 10:49:29;;;;;;;20.70;11.75;;;;;;;11.85;72.97;93713.25;5027388;28;20048;-78
2023/02/25 10:52:01;;;;;;;26.52;11.48;;;;;;;12.00;69.50;93711.19;5009319;28;20076;-78
2023/02/25 10:54:29;;;;;;;20.45;11.05;;;;;;;11.87;70.40;93709.47;5035488;28;20054;-77
2023/02/25 10:56:54;;;;;;;17.42;11.23;;;;;;;11.86;70.60;93705.28;5020049;28;20037;-78
2023/02/25 10:59:30;;;;;;;18.45;9.88;;;;;;;11.85;69.95;93703.69;5019829;28;20021;-77
2023/02/25 11:01:58;;;;;;;22.80;9.32;;;;;;;11.99;67.64;93694.03;5008507;28;20048;-77
2023/02/25 11:04:28;;;;;;;22.50;9.88;;;;;;;12.03;67.11;93700.41;5034938;28;20029;-78
2023/02/25 11:06:53;;;;;;;23.73;12.18;;;;;;;11.93;68.29;93690.47;5034192;28;20112;-77
2023/02/25 11:09:19;;;;;;;23.20;11.20;;;;;;;11.83;69.58;93690.16;5015297;28;20116;-77
2023/02/25 11:12:10;;;;;;;23.08;12.25;;;;;;;11.72;71.19;93693.38;5029488;28;20156;-77
2023/02/25 11:14:37;;;;;;;24.23;13.35;;;;;;;11.72;70.64;93685.59;5017802;28;20516;-78
2023/02/25 11:17:11;;;;;;;19.73;12.63;;;;;;;11.66;71.94;93683.81;5016385;28;20712;-78
2023/02/25 11:19:39;;;;;;;19.65;12.35;;;;;;;11.69;70.86;93677.44;5028866;28;20394;-78
2023/02/25 11:22:08;;;;;;;20.52;11.73;;;;;;;11.70;70.68;93679.03;5014890;28;20052;-78
2023/02/25 11:24:37;;;;;;;32.28;16.58;;;;;;;11.69;71.14;93673.03;5017801;28;20052;-78
2023/02/25 11:27:05;;;;;;;43.85;19.35;;;;;;;11.53;72.56;93673.53;5047342;28;20037;-77